sensor_id;sensor_type;location;lat;lon;timestamp;pressure;altitude;pressure_sealevel;temperature;humidity
61682;BME280;47577;43.610;25.010;2023-12-22T00:01:40;98893.03;;;1.95;79.96
61682;BME280;47577;43.610;25.010;2023-12-22T00:04:05;98879.75;;;2.03;80.25
61682;BME280;47577;43.610;25.010;2023-12-22T00:06:32;98867.84;;;1.90;80.15
61682;BME280;47577;43.610;25.010;2023-12-22T00:08:58;98863.22;;;2.01;80.40
61682;BME280;47577;43.610;25.010;2023-12-22T00:11:24;98857.75;;;2.09;80.06
61682;BME280;47577;43.610;25.010;2023-12-22T00:13:49;98857.50;;;2.19;79.07
61682;BME280;47577;43.610;25.010;2023-12-22T00:16:15;98851.44;;;2.17;79.75
61682;BME280;47577;43.610;25.010;2023-12-22T00:18:40;98839.22;;;2.16;79.12
61682;BME280;47577;43.610;25.010;2023-12-22T00:21:12;98842.66;;;2.18;79.13
61682;BME280;47577;43.610;25.010;2023-12-22T00:23:38;98818.69;;;1.98;79.60
61682;BME280;47577;43.610;25.010;2023-12-22T00:26:05;98808.75;;;2.12;79.62
61682;BME280;47577;43.610;25.010;2023-12-22T00:28:31;98825.94;;;2.24;79.55
61682;BME280;47577;43.610;25.010;2023-12-22T00:30:59;98810.25;;;2.21;79.42
61682;BME280;47577;43.610;25.010;2023-12-22T00:33:25;98812.91;;;2.19;79.30
61682;BME280;47577;43.610;25.010;2023-12-22T00:35:51;98814.59;;;2.24;79.32
61682;BME280;47577;43.610;25.010;2023-12-22T00:38:17;98804.34;;;2.13;79.22
61682;BME280;47577;43.610;25.010;2023-12-22T00:40:43;98812.75;;;1.91;79.89
61682;BME280;47577;43.610;25.010;2023-12-22T00:43:09;98797.00;;;1.93;80.36
61682;BME280;47577;43.610;25.010;2023-12-22T00:45:34;98808.97;;;2.03;80.50
61682;BME280;47577;43.610;25.010;2023-12-22T00:48:00;98801.94;;;2.04;80.33
61682;BME280;47577;43.610;25.010;2023-12-22T00:50:25;98804.53;;;2.05;80.05
61682;BME280;47577;43.610;25.010;2023-12-22T00:52:51;98789.66;;;2.06;80.32
61682;BME280;47577;43.610;25.010;2023-12-22T00:55:16;98790.09;;;2.23;80.00
61682;BME280;47577;43.610;25.010;2023-12-22T00:57:42;98770.81;;;2.26;79.59
61682;BME280;47577;43.610;25.010;2023-12-22T01:00:09;98765.34;;;2.35;78.81
61682;BME280;47577;43.610;25.010;2023-12-22T01:02:37;98775.47;;;2.47;79.12
61682;BME280;47577;43.610;25.010;2023-12-22T01:05:04;98757.84;;;2.52;78.87
61682;BME280;47577;43.610;25.010;2023-12-22T01:07:29;98752.47;;;2.57;78.39
61682;BME280;47577;43.610;25.010;2023-12-22T01:09:56;98756.88;;;2.56;78.35
61682;BME280;47577;43.610;25.010;2023-12-22T01:12:21;98748.66;;;2.69;77.98
61682;BME280;47577;43.610;25.010;2023-12-22T01:14:50;98739.16;;;2.65;78.44
61682;BME280;47577;43.610;25.010;2023-12-22T01:17:17;98749.34;;;2.76;76.15
61682;BME280;47577;43.610;25.010;2023-12-22T01:19:42;98739.59;;;2.81;76.37
61682;BME280;47577;43.610;25.010;2023-12-22T01:22:08;98721.28;;;2.78;76.99
61682;BME280;47577;43.610;25.010;2023-12-22T01:24:34;98718.31;;;2.90;76.11
61682;BME280;47577;43.610;25.010;2023-12-22T01:27:04;98722.56;;;2.94;75.37
61682;BME280;47577;43.610;25.010;2023-12-22T01:29:30;98705.97;;;2.93;75.60
61682;BME280;47577;43.610;25.010;2023-12-22T01:31:56;98691.72;;;3.01;75.36
61682;BME280;47577;43.610;25.010;2023-12-22T01:34:21;98694.16;;;3.07;74.08
61682;BME280;47577;43.610;25.010;2023-12-22T01:36:47;98681.94;;;3.06;74.27
61682;BME280;47577;43.610;25.010;2023-12-22T01:39:12;98683.03;;;2.99;74.38
61682;BME280;47577;43.610;25.010;2023-12-22T01:41:41;98664.78;;;2.94;74.43
61682;BME280;47577;43.610;25.010;2023-12-22T01:44:07;98668.94;;;3.01;74.73
61682;BME280;47577;43.610;25.010;2023-12-22T01:46:33;98657.50;;;3.04;74.21
61682;BME280;47577;43.610;25.010;2023-12-22T01:49:00;98645.78;;;3.14;74.51
61682;BME280;47577;43.610;25.010;2023-12-22T01:51:29;98647.25;;;3.24;73.31
61682;BME280;47577;43.610;25.010;2023-12-22T01:53:55;98635.59;;;3.32;72.21
61682;BME280;47577;43.610;25.010;2023-12-22T01:56:21;98634.91;;;3.26;72.43
61682;BME280;47577;43.610;25.010;2023-12-22T01:58:47;98644.50;;;3.54;70.69
61682;BME280;47577;43.610;25.010;2023-12-22T02:01:13;98635.88;;;3.51;72.26
61682;BME280;47577;43.610;25.010;2023-12-22T02:03:39;98628.75;;;3.54;70.80
61682;BME280;47577;43.610;25.010;2023-12-22T02:06:05;98614.69;;;3.55;70.13
61682;BME280;47577;43.610;25.010;2023-12-22T02:08:32;98613.53;;;3.64;70.88
61682;BME280;47577;43.610;25.010;2023-12-22T02:10:58;98617.34;;;3.55;70.73
61682;BME280;47577;43.610;25.010;2023-12-22T02:13:24;98612.63;;;3.38;72.10
61682;BME280;47577;43.610;25.010;2023-12-22T02:15:56;98610.44;;;3.51;70.74
61682;BME280;47577;43.610;25.010;2023-12-22T02:18:31;98609.78;;;3.44;71.02
61682;BME280;47577;43.610;25.010;2023-12-22T02:20:58;98608.91;;;3.45;71.55
61682;BME280;47577;43.610;25.010;2023-12-22T02:23:24;98602.59;;;3.24;70.92
61682;BME280;47577;43.610;25.010;2023-12-22T02:25:54;98605.66;;;3.37;71.01
61682;BME280;47577;43.610;25.010;2023-12-22T02:28:23;98601.88;;;3.19;72.10
61682;BME280;47577;43.610;25.010;2023-12-22T02:31:02;98602.34;;;3.32;71.62
61682;BME280;47577;43.610;25.010;2023-12-22T02:33:30;98595.22;;;3.36;71.04
61682;BME280;47577;43.610;25.010;2023-12-22T02:36:03;98592.59;;;3.36;70.62
61682;BME280;47577;43.610;25.010;2023-12-22T02:38:31;98601.66;;;3.25;70.98
61682;BME280;47577;43.610;25.010;2023-12-22T02:40:58;98602.81;;;3.17;72.04
61682;BME280;47577;43.610;25.010;2023-12-22T02:43:24;98597.75;;;3.10;71.29
61682;BME280;47577;43.610;25.010;2023-12-22T02:45:50;98605.06;;;3.01;71.82
61682;BME280;47577;43.610;25.010;2023-12-22T02:48:16;98611.38;;;2.95;73.06
61682;BME280;47577;43.610;25.010;2023-12-22T02:50:42;98604.72;;;2.83;73.05
61682;BME280;47577;43.610;25.010;2023-12-22T02:53:07;98600.06;;;2.93;72.29
61682;BME280;47577;43.610;25.010;2023-12-22T02:55:33;98598.00;;;2.74;73.00
61682;BME280;47577;43.610;25.010;2023-12-22T02:57:59;98598.31;;;2.93;73.12
61682;BME280;47577;43.610;25.010;2023-12-22T03:00:24;98593.88;;;2.96;73.23
61682;BME280;47577;43.610;25.010;2023-12-22T03:02:50;98588.38;;;3.03;72.48
61682;BME280;47577;43.610;25.010;2023-12-22T03:05:15;98590.63;;;2.87;72.24
61682;BME280;47577;43.610;25.010;2023-12-22T03:07:42;98591.34;;;2.92;72.92
61682;BME280;47577;43.610;25.010;2023-12-22T03:10:08;98596.41;;;2.99;72.01
61682;BME280;47577;43.610;25.010;2023-12-22T03:12:33;98593.53;;;3.06;72.43
61682;BME280;47577;43.610;25.010;2023-12-22T03:14:59;98579.38;;;3.10;72.40
61682;BME280;47577;43.610;25.010;2023-12-22T03:17:24;98582.16;;;3.33;71.89
61682;BME280;47577;43.610;25.010;2023-12-22T03:19:50;98583.63;;;3.41;71.11
61682;BME280;47577;43.610;25.010;2023-12-22T03:22:16;98585.84;;;3.54;70.64
61682;BME280;47577;43.610;25.010;2023-12-22T03:24:41;98580.53;;;3.55;70.94
61682;BME280;47577;43.610;25.010;2023-12-22T03:27:07;98563.28;;;3.46;71.40
61682;BME280;47577;43.610;25.010;2023-12-22T03:29:32;98572.25;;;3.66;69.85
61682;BME280;47577;43.610;25.010;2023-12-22T03:31:58;98565.34;;;3.63;69.59
61682;BME280;47577;43.610;25.010;2023-12-22T03:34:24;98572.88;;;3.74;68.50
61682;BME280;47577;43.610;25.010;2023-12-22T03:36:49;98579.84;;;3.75;68.36
61682;BME280;47577;43.610;25.010;2023-12-22T03:39:15;98577.25;;;3.74;68.26
61682;BME280;47577;43.610;25.010;2023-12-22T03:41:41;98580.81;;;3.73;69.68
61682;BME280;47577;43.610;25.010;2023-12-22T03:44:06;98567.69;;;3.73;69.76
61682;BME280;47577;43.610;25.010;2023-12-22T03:46:32;98571.94;;;3.75;70.41
61682;BME280;47577;43.610;25.010;2023-12-22T03:48:58;98562.13;;;3.80;69.65
61682;BME280;47577;43.610;25.010;2023-12-22T03:51:23;98554.06;;;3.85;68.92
61682;BME280;47577;43.610;25.010;2023-12-22T03:53:49;98561.66;;;3.94;68.02
61682;BME280;47577;43.610;25.010;2023-12-22T03:56:15;98553.75;;;3.94;68.73
61682;BME280;47577;43.610;25.010;2023-12-22T03:58:40;98540.78;;;3.90;68.39
61682;BME280;47577;43.610;25.010;2023-12-22T04:01:06;98540.59;;;3.94;69.03
61682;BME280;47577;43.610;25.010;2023-12-22T04:03:34;98549.91;;;4.03;68.37
61682;BME280;47577;43.610;25.010;2023-12-22T04:06:03;98548.38;;;4.21;67.16
61682;BME280;47577;43.610;25.010;2023-12-22T04:08:29;98555.31;;;4.47;64.12
61682;BME280;47577;43.610;25.010;2023-12-22T04:10:55;98546.97;;;4.58;63.68
61682;BME280;47577;43.610;25.010;2023-12-22T04:13:21;98544.06;;;4.66;64.76
61682;BME280;47577;43.610;25.010;2023-12-22T04:15:46;98556.78;;;4.54;67.51
61682;BME280;47577;43.610;25.010;2023-12-22T04:18:12;98552.41;;;4.31;69.01
61682;BME280;47577;43.610;25.010;2023-12-22T04:20:37;98553.41;;;4.27;69.58
61682;BME280;47577;43.610;25.010;2023-12-22T04:23:03;98549.09;;;4.26;70.35
61682;BME280;47577;43.610;25.010;2023-12-22T04:25:29;98564.63;;;4.32;70.62
61682;BME280;47577;43.610;25.010;2023-12-22T04:27:54;98544.34;;;4.12;71.50
61682;BME280;47577;43.610;25.010;2023-12-22T04:30:20;98560.91;;;4.14;72.25
61682;BME280;47577;43.610;25.010;2023-12-22T04:32:45;98550.75;;;4.05;71.60
61682;BME280;47577;43.610;25.010;2023-12-22T04:35:11;98563.81;;;3.83;73.64
61682;BME280;47577;43.610;25.010;2023-12-22T04:37:37;98561.38;;;3.77;73.92
61682;BME280;47577;43.610;25.010;2023-12-22T04:40:02;98562.41;;;3.73;74.77
61682;BME280;47577;43.610;25.010;2023-12-22T04:42:28;98552.84;;;3.70;74.72
61682;BME280;47577;43.610;25.010;2023-12-22T04:44:54;98552.06;;;3.68;74.58
61682;BME280;47577;43.610;25.010;2023-12-22T04:47:20;98544.19;;;3.68;74.42
61682;BME280;47577;43.610;25.010;2023-12-22T04:49:46;98538.66;;;3.76;74.36
61682;BME280;47577;43.610;25.010;2023-12-22T04:52:12;98532.41;;;3.78;74.73
61682;BME280;47577;43.610;25.010;2023-12-22T04:54:37;98527.09;;;3.80;74.99
61682;BME280;47577;43.610;25.010;2023-12-22T04:57:04;98530.16;;;3.93;73.83
61682;BME280;47577;43.610;25.010;2023-12-22T04:59:29;98519.19;;;4.05;73.26
61682;BME280;47577;43.610;25.010;2023-12-22T05:01:55;98518.72;;;4.17;72.75
61682;BME280;47577;43.610;25.010;2023-12-22T05:04:21;98506.63;;;4.35;71.53
61682;BME280;47577;43.610;25.010;2023-12-22T05:06:47;98507.63;;;4.55;70.85
61682;BME280;47577;43.610;25.010;2023-12-22T05:09:14;98513.63;;;4.81;70.95
61682;BME280;47577;43.610;25.010;2023-12-22T05:11:39;98515.59;;;4.98;71.88
61682;BME280;47577;43.610;25.010;2023-12-22T05:14:05;98511.03;;;5.01;71.88
61682;BME280;47577;43.610;25.010;2023-12-22T05:16:31;98506.50;;;5.05;71.92
61682;BME280;47577;43.610;25.010;2023-12-22T05:19:00;98512.44;;;5.10;72.35
61682;BME280;47577;43.610;25.010;2023-12-22T05:21:25;98507.28;;;5.07;71.05
61682;BME280;47577;43.610;25.010;2023-12-22T05:23:53;98512.25;;;5.15;71.08
61682;BME280;47577;43.610;25.010;2023-12-22T05:26:19;98508.38;;;5.23;70.67
61682;BME280;47577;43.610;25.010;2023-12-22T05:28:45;98498.31;;;5.33;70.00
61682;BME280;47577;43.610;25.010;2023-12-22T05:31:11;98497.38;;;5.34;69.77
61682;BME280;47577;43.610;25.010;2023-12-22T05:33:37;98504.09;;;5.41;69.83
61682;BME280;47577;43.610;25.010;2023-12-22T05:36:04;98498.19;;;5.36;70.07
61682;BME280;47577;43.610;25.010;2023-12-22T05:38:29;98487.47;;;5.39;68.77
61682;BME280;47577;43.610;25.010;2023-12-22T05:40:56;98501.53;;;5.40;68.54
61682;BME280;47577;43.610;25.010;2023-12-22T05:43:21;98499.28;;;5.51;68.53
61682;BME280;47577;43.610;25.010;2023-12-22T05:45:47;98489.78;;;5.47;68.31
61682;BME280;47577;43.610;25.010;2023-12-22T05:48:12;98498.16;;;5.57;68.60
61682;BME280;47577;43.610;25.010;2023-12-22T05:50:38;98487.59;;;5.57;69.08
61682;BME280;47577;43.610;25.010;2023-12-22T05:53:04;98492.81;;;5.58;68.82
61682;BME280;47577;43.610;25.010;2023-12-22T05:55:29;98495.31;;;5.61;68.87
61682;BME280;47577;43.610;25.010;2023-12-22T05:57:55;98489.72;;;5.69;68.33
61682;BME280;47577;43.610;25.010;2023-12-22T06:00:21;98486.06;;;5.72;68.17
61682;BME280;47577;43.610;25.010;2023-12-22T06:02:47;98482.78;;;5.66;68.51
61682;BME280;47577;43.610;25.010;2023-12-22T06:05:12;98485.81;;;5.78;68.91
61682;BME280;47577;43.610;25.010;2023-12-22T06:07:39;98483.50;;;5.70;68.19
61682;BME280;47577;43.610;25.010;2023-12-22T06:10:05;98475.81;;;5.65;69.38
61682;BME280;47577;43.610;25.010;2023-12-22T06:12:32;98461.88;;;5.62;70.23
61682;BME280;47577;43.610;25.010;2023-12-22T06:14:57;98457.75;;;5.56;70.61
61682;BME280;47577;43.610;25.010;2023-12-22T06:17:23;98441.59;;;5.64;70.09
61682;BME280;47577;43.610;25.010;2023-12-22T06:19:49;98458.28;;;5.64;70.55
61682;BME280;47577;43.610;25.010;2023-12-22T06:22:14;98461.88;;;5.62;70.72
61682;BME280;47577;43.610;25.010;2023-12-22T06:24:40;98459.13;;;5.65;70.53
61682;BME280;47577;43.610;25.010;2023-12-22T06:27:05;98455.06;;;5.58;70.88
61682;BME280;47577;43.610;25.010;2023-12-22T06:29:32;98447.53;;;5.48;71.96
61682;BME280;47577;43.610;25.010;2023-12-22T06:31:58;98446.31;;;5.57;71.34
61682;BME280;47577;43.610;25.010;2023-12-22T06:34:24;98457.56;;;5.61;72.19
61682;BME280;47577;43.610;25.010;2023-12-22T06:36:51;98447.88;;;5.61;71.76
61682;BME280;47577;43.610;25.010;2023-12-22T06:39:16;98463.69;;;5.61;72.66
61682;BME280;47577;43.610;25.010;2023-12-22T06:41:42;98461.44;;;5.52;72.55
61682;BME280;47577;43.610;25.010;2023-12-22T06:44:08;98466.66;;;5.54;71.95
61682;BME280;47577;43.610;25.010;2023-12-22T06:46:35;98467.78;;;5.48;72.54
61682;BME280;47577;43.610;25.010;2023-12-22T06:49:01;98461.38;;;5.54;73.21
61682;BME280;47577;43.610;25.010;2023-12-22T06:51:30;98474.88;;;5.66;72.25
61682;BME280;47577;43.610;25.010;2023-12-22T06:53:56;98459.94;;;5.67;71.77
61682;BME280;47577;43.610;25.010;2023-12-22T06:56:23;98464.91;;;5.73;72.52
61682;BME280;47577;43.610;25.010;2023-12-22T06:58:50;98466.22;;;5.83;71.87
61682;BME280;47577;43.610;25.010;2023-12-22T07:01:19;98462.22;;;5.94;71.56
61682;BME280;47577;43.610;25.010;2023-12-22T07:03:46;98458.81;;;5.92;70.73
61682;BME280;47577;43.610;25.010;2023-12-22T07:06:14;98466.13;;;6.06;71.01
61682;BME280;47577;43.610;25.010;2023-12-22T07:08:40;98457.72;;;6.16;70.35
61682;BME280;47577;43.610;25.010;2023-12-22T07:11:05;98473.63;;;6.34;70.23
61682;BME280;47577;43.610;25.010;2023-12-22T07:13:32;98477.53;;;6.44;70.36
61682;BME280;47577;43.610;25.010;2023-12-22T07:15:58;98473.28;;;6.59;69.09
61682;BME280;47577;43.610;25.010;2023-12-22T07:18:23;98482.69;;;6.84;69.14
61682;BME280;47577;43.610;25.010;2023-12-22T07:20:50;98485.72;;;6.93;69.03
61682;BME280;47577;43.610;25.010;2023-12-22T07:23:16;98492.34;;;7.02;69.20
61682;BME280;47577;43.610;25.010;2023-12-22T07:25:41;98476.72;;;7.15;67.71
61682;BME280;47577;43.610;25.010;2023-12-22T07:28:07;98491.16;;;7.25;68.02
61682;BME280;47577;43.610;25.010;2023-12-22T07:30:33;98493.50;;;7.31;67.41
61682;BME280;47577;43.610;25.010;2023-12-22T07:32:59;98500.53;;;7.32;67.79
61682;BME280;47577;43.610;25.010;2023-12-22T07:35:24;98497.09;;;7.30;67.41
61682;BME280;47577;43.610;25.010;2023-12-22T07:37:50;98496.84;;;7.35;68.06
61682;BME280;47577;43.610;25.010;2023-12-22T07:40:15;98494.06;;;7.38;66.83
61682;BME280;47577;43.610;25.010;2023-12-22T07:42:41;98502.47;;;7.29;66.39
61682;BME280;47577;43.610;25.010;2023-12-22T07:45:07;98507.13;;;7.41;66.05
61682;BME280;47577;43.610;25.010;2023-12-22T07:47:34;98505.44;;;7.40;66.60
61682;BME280;47577;43.610;25.010;2023-12-22T07:50:02;98511.25;;;7.47;67.09
61682;BME280;47577;43.610;25.010;2023-12-22T07:52:27;98499.66;;;7.49;66.76
61682;BME280;47577;43.610;25.010;2023-12-22T07:54:53;98509.06;;;7.55;65.48
61682;BME280;47577;43.610;25.010;2023-12-22T07:57:18;98524.53;;;7.63;66.33
61682;BME280;47577;43.610;25.010;2023-12-22T07:59:44;98521.50;;;7.53;66.46
61682;BME280;47577;43.610;25.010;2023-12-22T08:02:09;98524.13;;;7.71;66.24
61682;BME280;47577;43.610;25.010;2023-12-22T08:04:35;98533.34;;;7.63;67.99
61682;BME280;47577;43.610;25.010;2023-12-22T08:07:01;98524.94;;;7.73;66.45
61682;BME280;47577;43.610;25.010;2023-12-22T08:09:27;98537.25;;;7.90;67.43
61682;BME280;47577;43.610;25.010;2023-12-22T08:11:53;98523.78;;;7.94;68.04
61682;BME280;47577;43.610;25.010;2023-12-22T08:14:19;98508.75;;;7.95;67.61
61682;BME280;47577;43.610;25.010;2023-12-22T08:16:44;98502.47;;;7.97;68.35
61682;BME280;47577;43.610;25.010;2023-12-22T08:19:10;98490.84;;;8.00;66.49
61682;BME280;47577;43.610;25.010;2023-12-22T08:21:36;98502.94;;;8.21;66.62
61682;BME280;47577;43.610;25.010;2023-12-22T08:24:01;98502.69;;;8.26;66.70
61682;BME280;47577;43.610;25.010;2023-12-22T08:26:27;98494.91;;;8.39;65.91
61682;BME280;47577;43.610;25.010;2023-12-22T08:28:52;98486.75;;;8.44;65.55
61682;BME280;47577;43.610;25.010;2023-12-22T08:31:18;98485.91;;;8.43;65.66
61682;BME280;47577;43.610;25.010;2023-12-22T08:33:44;98500.69;;;8.47;67.02
61682;BME280;47577;43.610;25.010;2023-12-22T08:36:10;98506.00;;;8.47;66.88
61682;BME280;47577;43.610;25.010;2023-12-22T08:38:37;98502.91;;;8.55;67.02
61682;BME280;47577;43.610;25.010;2023-12-22T08:41:07;98516.59;;;8.47;67.56
61682;BME280;47577;43.610;25.010;2023-12-22T08:43:33;98503.44;;;8.46;67.69
61682;BME280;47577;43.610;25.010;2023-12-22T08:45:59;98506.00;;;8.47;68.23
61682;BME280;47577;43.610;25.010;2023-12-22T08:48:25;98499.53;;;8.35;67.00
61682;BME280;47577;43.610;25.010;2023-12-22T08:50:51;98500.78;;;8.46;68.22
61682;BME280;47577;43.610;25.010;2023-12-22T08:53:16;98484.97;;;8.44;67.67
61682;BME280;47577;43.610;25.010;2023-12-22T08:55:42;98489.59;;;8.39;68.47
61682;BME280;47577;43.610;25.010;2023-12-22T08:58:07;98487.84;;;8.39;67.75
61682;BME280;47577;43.610;25.010;2023-12-22T09:00:33;98479.22;;;8.52;68.80
61682;BME280;47577;43.610;25.010;2023-12-22T09:02:58;98480.19;;;8.51;68.06
61682;BME280;47577;43.610;25.010;2023-12-22T09:05:24;98481.88;;;8.52;68.40
61682;BME280;47577;43.610;25.010;2023-12-22T09:07:53;98483.25;;;8.59;68.22
61682;BME280;47577;43.610;25.010;2023-12-22T09:10:20;98487.50;;;8.62;68.30
61682;BME280;47577;43.610;25.010;2023-12-22T09:12:47;98486.50;;;8.64;67.80
61682;BME280;47577;43.610;25.010;2023-12-22T09:15:12;98489.13;;;8.64;68.65
61682;BME280;47577;43.610;25.010;2023-12-22T09:17:38;98515.88;;;8.59;69.07
61682;BME280;47577;43.610;25.010;2023-12-22T09:20:04;98512.84;;;8.34;69.43
61682;BME280;47577;43.610;25.010;2023-12-22T09:22:30;98509.28;;;8.35;69.77
61682;BME280;47577;43.610;25.010;2023-12-22T09:24:56;98525.16;;;8.35;69.78
61682;BME280;47577;43.610;25.010;2023-12-22T09:27:21;98518.31;;;8.31;70.65
61682;BME280;47577;43.610;25.010;2023-12-22T09:29:47;98519.94;;;8.33;71.27
61682;BME280;47577;43.610;25.010;2023-12-22T09:32:13;98515.03;;;8.43;70.89
61682;BME280;47577;43.610;25.010;2023-12-22T09:34:38;98492.97;;;8.42;71.21
61682;BME280;47577;43.610;25.010;2023-12-22T09:37:05;98524.31;;;8.34;72.12
61682;BME280;47577;43.610;25.010;2023-12-22T09:39:31;98523.56;;;8.48;71.75
61682;BME280;47577;43.610;25.010;2023-12-22T09:41:56;98514.97;;;8.60;72.08
61682;BME280;47577;43.610;25.010;2023-12-22T09:44:30;98510.41;;;8.78;70.33
61682;BME280;47577;43.610;25.010;2023-12-22T09:46:58;98497.16;;;8.78;70.58
61682;BME280;47577;43.610;25.010;2023-12-22T09:49:24;98489.69;;;9.01;70.71
61682;BME280;47577;43.610;25.010;2023-12-22T09:51:51;98516.38;;;8.98;69.90
61682;BME280;47577;43.610;25.010;2023-12-22T09:54:17;98494.47;;;9.10;70.88
61682;BME280;47577;43.610;25.010;2023-12-22T09:56:44;98487.06;;;9.01;71.22
61682;BME280;47577;43.610;25.010;2023-12-22T09:59:11;98495.50;;;9.08;71.48
61682;BME280;47577;43.610;25.010;2023-12-22T10:01:47;98476.53;;;9.00;71.72
61682;BME280;47577;43.610;25.010;2023-12-22T10:04:14;98484.06;;;9.07;69.79
61682;BME280;47577;43.610;25.010;2023-12-22T10:06:41;98478.56;;;9.10;70.93
61682;BME280;47577;43.610;25.010;2023-12-22T10:09:07;98482.75;;;8.99;71.42
61682;BME280;47577;43.610;25.010;2023-12-22T10:11:35;98469.78;;;9.24;70.71
61682;BME280;47577;43.610;25.010;2023-12-22T10:14:02;98471.06;;;9.33;71.72
61682;BME280;47577;43.610;25.010;2023-12-22T10:16:28;98469.63;;;9.27;71.62
61682;BME280;47577;43.610;25.010;2023-12-22T10:18:54;98474.97;;;9.11;71.74
61682;BME280;47577;43.610;25.010;2023-12-22T10:21:19;98473.41;;;9.23;71.57
61682;BME280;47577;43.610;25.010;2023-12-22T10:23:45;98467.59;;;9.17;71.47
61682;BME280;47577;43.610;25.010;2023-12-22T10:26:11;98465.81;;;9.17;70.62
61682;BME280;47577;43.610;25.010;2023-12-22T10:28:37;98468.53;;;9.15;70.70
61682;BME280;47577;43.610;25.010;2023-12-22T10:31:03;98465.16;;;9.28;71.58
61682;BME280;47577;43.610;25.010;2023-12-22T10:33:32;98455.78;;;9.22;71.11
61682;BME280;47577;43.610;25.010;2023-12-22T10:36:01;98450.66;;;9.19;71.54
61682;BME280;47577;43.610;25.010;2023-12-22T10:38:33;98455.69;;;9.24;72.12
61682;BME280;47577;43.610;25.010;2023-12-22T10:41:01;98448.66;;;9.23;72.37
61682;BME280;47577;43.610;25.010;2023-12-22T10:43:27;98446.47;;;9.15;71.60
61682;BME280;47577;43.610;25.010;2023-12-22T10:45:53;98429.25;;;9.22;71.13
61682;BME280;47577;43.610;25.010;2023-12-22T10:48:19;98422.81;;;9.12;71.57
61682;BME280;47577;43.610;25.010;2023-12-22T10:50:44;98435.28;;;9.10;70.82
61682;BME280;47577;43.610;25.010;2023-12-22T10:53:12;98444.25;;;9.23;69.80
61682;BME280;47577;43.610;25.010;2023-12-22T10:55:38;98431.06;;;9.22;70.55
61682;BME280;47577;43.610;25.010;2023-12-22T10:58:05;98435.22;;;9.26;70.95
61682;BME280;47577;43.610;25.010;2023-12-22T11:00:32;98442.03;;;9.15;70.72
61682;BME280;47577;43.610;25.010;2023-12-22T11:03:01;98437.38;;;9.19;71.21
61682;BME280;47577;43.610;25.010;2023-12-22T11:05:32;98430.50;;;9.31;72.35
61682;BME280;47577;43.610;25.010;2023-12-22T11:07:59;98440.22;;;9.16;70.55
61682;BME280;47577;43.610;25.010;2023-12-22T11:10:30;98446.16;;;9.05;70.65
61682;BME280;47577;43.610;25.010;2023-12-22T11:12:57;98431.59;;;9.12;70.64
61682;BME280;47577;43.610;25.010;2023-12-22T11:15:24;98446.53;;;9.13;69.56
61682;BME280;47577;43.610;25.010;2023-12-22T11:17:51;98446.16;;;9.05;69.23
61682;BME280;47577;43.610;25.010;2023-12-22T11:20:17;98451.66;;;9.17;67.91
61682;BME280;47577;43.610;25.010;2023-12-22T11:22:44;98437.66;;;9.14;67.88
61682;BME280;47577;43.610;25.010;2023-12-22T11:25:10;98457.03;;;9.01;67.03
61682;BME280;47577;43.610;25.010;2023-12-22T11:27:37;98457.34;;;9.10;67.16
61682;BME280;47577;43.610;25.010;2023-12-22T11:30:04;98449.19;;;9.13;66.42
61682;BME280;47577;43.610;25.010;2023-12-22T11:32:34;98457.97;;;9.30;65.86
61682;BME280;47577;43.610;25.010;2023-12-22T11:35:00;98453.03;;;9.24;67.35
61682;BME280;47577;43.610;25.010;2023-12-22T11:37:26;98463.47;;;9.27;67.05
61682;BME280;47577;43.610;25.010;2023-12-22T11:39:51;98461.66;;;9.27;66.16
61682;BME280;47577;43.610;25.010;2023-12-22T11:42:27;98432.66;;;9.24;65.14
61682;BME280;47577;43.610;25.010;2023-12-22T11:44:53;98444.69;;;9.15;65.63
61682;BME280;47577;43.610;25.010;2023-12-22T11:47:23;98446.75;;;9.10;64.74
61682;BME280;47577;43.610;25.010;2023-12-22T11:49:49;98465.72;;;9.19;66.27
61682;BME280;47577;43.610;25.010;2023-12-22T11:52:24;98473.88;;;9.00;64.47
61682;BME280;47577;43.610;25.010;2023-12-22T11:54:51;98463.06;;;9.19;64.68
61682;BME280;47577;43.610;25.010;2023-12-22T11:57:34;98515.41;;;9.15;64.63
61682;BME280;47577;43.610;25.010;2023-12-22T12:00:02;98478.38;;;9.13;64.78
61682;BME280;47577;43.610;25.010;2023-12-22T12:02:35;98475.91;;;9.10;64.11
61682;BME280;47577;43.610;25.010;2023-12-22T12:05:02;98466.47;;;9.21;64.07
61682;BME280;47577;43.610;25.010;2023-12-22T12:07:45;98470.50;;;9.42;61.59
61682;BME280;47577;43.610;25.010;2023-12-22T12:13:11;98477.97;;;9.36;61.24
61682;BME280;47577;43.610;25.010;2023-12-22T12:15:38;98456.13;;;9.46;61.86
61682;BME280;47577;43.610;25.010;2023-12-22T12:18:05;98485.31;;;9.61;60.53
61682;BME280;47577;43.610;25.010;2023-12-22T12:20:32;98490.06;;;9.70;62.77
61682;BME280;47577;43.610;25.010;2023-12-22T12:22:58;98471.09;;;9.62;61.37
61682;BME280;47577;43.610;25.010;2023-12-22T12:25:26;98485.47;;;9.43;63.90
61682;BME280;47577;43.610;25.010;2023-12-22T12:28:03;98450.25;;;9.70;61.88
61682;BME280;47577;43.610;25.010;2023-12-22T12:30:30;98450.53;;;9.80;61.43
61682;BME280;47577;43.610;25.010;2023-12-22T12:32:59;98441.63;;;9.81;59.50
61682;BME280;47577;43.610;25.010;2023-12-22T12:35:28;98441.06;;;9.90;58.49
61682;BME280;47577;43.610;25.010;2023-12-22T12:37:55;98452.44;;;9.92;57.34
61682;BME280;47577;43.610;25.010;2023-12-22T12:40:24;98456.22;;;9.59;58.06
61682;BME280;47577;43.610;25.010;2023-12-22T12:42:50;98434.72;;;9.64;57.16
61682;BME280;47577;43.610;25.010;2023-12-22T12:45:22;98443.06;;;9.72;57.08
61682;BME280;47577;43.610;25.010;2023-12-22T12:48:01;98464.47;;;9.55;56.56
61682;BME280;47577;43.610;25.010;2023-12-22T12:50:28;98457.72;;;9.49;54.06
61682;BME280;47577;43.610;25.010;2023-12-22T12:52:55;98461.41;;;9.46;54.71
61682;BME280;47577;43.610;25.010;2023-12-22T12:55:22;98446.88;;;9.38;55.46
61682;BME280;47577;43.610;25.010;2023-12-22T12:57:52;98451.63;;;9.32;54.45
61682;BME280;47577;43.610;25.010;2023-12-22T13:00:28;98453.34;;;9.33;56.04